createdAt,value
2018-05-31T00:00:09.453Z,71.50
2018-05-31T00:02:37.302Z,71.50
2018-05-31T00:05:04.985Z,71.50
2018-05-31T00:07:32.831Z,71.40
2018-05-31T00:10:00.710Z,71.50
2018-05-31T00:12:28.567Z,71.40
2018-05-31T00:14:56.380Z,71.40
2018-05-31T00:17:24.199Z,71.50
2018-05-31T00:19:52.436Z,71.50
2018-05-31T00:22:20.265Z,71.50
2018-05-31T00:24:48.113Z,71.50
2018-05-31T00:27:15.913Z,71.50
2018-05-31T00:29:43.781Z,71.50
2018-05-31T00:32:11.612Z,71.40
2018-05-31T00:34:39.432Z,71.40
2018-05-31T00:37:07.219Z,71.50
2018-05-31T00:39:35.852Z,71.50
2018-05-31T00:42:03.751Z,71.40
2018-05-31T00:44:31.611Z,71.30
2018-05-31T00:46:59.412Z,71.70
2018-05-31T00:49:27.978Z,72.10
2018-05-31T00:51:56.873Z,71.40
2018-05-31T00:54:25.404Z,71.40
2018-05-31T00:56:53.240Z,71.30
2018-05-31T00:59:21.091Z,71.30
2018-05-31T01:01:49.812Z,71.30
2018-05-31T01:04:17.643Z,71.30
2018-05-31T01:06:46.279Z,71.30
2018-05-31T01:09:14.136Z,71.20
2018-05-31T01:11:42.006Z,71.30
2018-05-31T01:14:09.812Z,71.20
2018-05-31T01:16:38.418Z,71.20
2018-05-31T01:19:06.957Z,71.30
2018-05-31T01:21:34.733Z,71.30
2018-05-31T01:24:02.558Z,71.20
2018-05-31T01:26:30.402Z,71.20
2018-05-31T01:28:58.234Z,71.20
2018-05-31T01:31:26.070Z,71.20
2018-05-31T01:33:54.103Z,70.70
2018-05-31T01:36:21.936Z,71.20
2018-05-31T01:38:49.612Z,71.20
2018-05-31T01:41:18.329Z,71.30
2018-05-31T01:43:46.170Z,71.10
2018-05-31T01:46:14.689Z,71.20
2018-05-31T01:48:42.456Z,71.10
2018-05-31T01:51:10.265Z,71.10
2018-05-31T01:53:38.840Z,71.30
2018-05-31T01:56:06.683Z,71.20
2018-05-31T01:58:34.496Z,71.10
2018-05-31T02:01:03.132Z,71.20
2018-05-31T02:03:30.926Z,71.10
2018-05-31T02:06:00.473Z,71.20
2018-05-31T02:08:28.309Z,71.10
2018-05-31T02:10:56.925Z,71.20
2018-05-31T02:13:24.723Z,71.10
2018-05-31T02:15:52.502Z,71.10
2018-05-31T02:18:20.349Z,71.10
2018-05-31T02:20:48.148Z,71.10
2018-05-31T02:23:15.984Z,71.10
2018-05-31T02:25:43.657Z,71.10
2018-05-31T02:28:11.508Z,71.10
2018-05-31T02:30:39.351Z,71.10
2018-05-31T02:33:07.174Z,71.10
2018-05-31T02:35:35.034Z,71.10
2018-05-31T02:38:02.936Z,71.10
2018-05-31T02:40:30.796Z,71.10
2018-05-31T02:42:58.789Z,71.10
2018-05-31T02:45:26.624Z,71.10
2018-05-31T02:47:55.115Z,71.10
2018-05-31T02:50:23.572Z,71.20
2018-05-31T02:52:51.351Z,71.00
2018-05-31T02:55:19.132Z,71.10
2018-05-31T02:57:47.720Z,71.10
2018-05-31T03:00:15.788Z,71.10
2018-05-31T03:02:43.680Z,71.10
2018-05-31T03:05:11.419Z,71.20
2018-05-31T03:07:39.197Z,71.10
2018-05-31T03:10:07.140Z,71.10
2018-05-31T03:12:35.662Z,71.10
2018-05-31T03:15:03.481Z,71.10
2018-05-31T03:17:32.068Z,71.10
2018-05-31T03:19:59.994Z,71.10
2018-05-31T03:22:27.795Z,71.10
2018-05-31T03:24:56.361Z,71.10
2018-05-31T03:27:24.180Z,71.00
2018-05-31T03:29:52.103Z,71.00
2018-05-31T03:32:20.239Z,71.10
2018-05-31T03:34:48.083Z,71.10
2018-05-31T03:37:15.904Z,71.10
2018-05-31T03:39:43.765Z,71.10
2018-05-31T03:42:11.754Z,71.20
2018-05-31T03:44:40.538Z,71.20
2018-05-31T03:47:08.404Z,71.10
2018-05-31T03:49:36.311Z,71.10
2018-05-31T03:52:04.238Z,70.70
2018-05-31T03:54:32.112Z,71.00
2018-05-31T03:57:00.765Z,71.00
2018-05-31T03:59:28.703Z,71.00
2018-05-31T04:01:56.623Z,71.00
2018-05-31T04:04:25.397Z,71.00
2018-05-31T04:06:53.294Z,70.90
2018-05-31T04:09:22.178Z,71.00
2018-05-31T04:11:50.263Z,71.00
2018-05-31T04:14:19.139Z,71.30
2018-05-31T04:16:47.050Z,71.00
2018-05-31T04:19:14.980Z,71.30
2018-05-31T04:21:43.695Z,71.70
2018-05-31T04:24:11.647Z,71.60
2018-05-31T04:26:39.737Z,71.50
2018-05-31T04:29:07.671Z,71.40
2018-05-31T04:31:36.345Z,71.90
2018-05-31T04:34:04.314Z,71.90
2018-05-31T04:36:32.325Z,71.80
2018-05-31T04:39:00.331Z,71.90
2018-05-31T04:41:28.428Z,72.20
2018-05-31T04:43:56.372Z,72.10
2018-05-31T04:46:24.572Z,72.00
2018-05-31T04:48:52.751Z,72.00
2018-05-31T04:51:20.777Z,72.00
2018-05-31T04:53:48.671Z,72.10
2018-05-31T04:56:16.692Z,72.10
2018-05-31T04:58:44.704Z,72.10
2018-05-31T05:01:12.664Z,72.10
2018-05-31T05:03:40.810Z,72.00
2018-05-31T05:06:08.785Z,72.10
2018-05-31T05:08:37.113Z,72.00
2018-05-31T05:11:06.088Z,72.10
2018-05-31T05:13:34.090Z,72.10
2018-05-31T05:16:02.795Z,72.10
2018-05-31T05:18:30.774Z,72.00
2018-05-31T05:20:58.787Z,72.20
2018-05-31T05:23:26.957Z,72.20
2018-05-31T05:25:54.941Z,72.30
2018-05-31T05:28:23.703Z,72.70
2018-05-31T05:30:51.658Z,72.60
2018-05-31T05:33:19.851Z,72.50
2018-05-31T05:35:47.858Z,72.60
2018-05-31T05:38:16.662Z,72.80
2018-05-31T05:40:44.530Z,72.70
2018-05-31T05:43:12.971Z,73.10
2018-05-31T05:45:40.653Z,73.10
2018-05-31T05:48:08.394Z,73.20
2018-05-31T05:50:37.364Z,73.20
2018-05-31T05:53:05.069Z,73.30
2018-05-31T05:55:32.786Z,73.40
2018-05-31T05:58:00.571Z,73.40
2018-05-31T06:00:28.284Z,73.40
2018-05-31T06:02:56.042Z,73.50
2018-05-31T06:05:24.529Z,73.50
2018-05-31T06:07:52.233Z,73.50
2018-05-31T06:10:20.018Z,73.50
2018-05-31T06:12:47.752Z,73.50
2018-05-31T06:15:15.480Z,73.60
2018-05-31T06:17:43.986Z,73.60
2018-05-31T06:20:11.760Z,73.50
2018-05-31T06:22:39.485Z,73.60
2018-05-31T06:25:08.030Z,73.60
2018-05-31T06:27:35.783Z,73.60
2018-05-31T06:30:03.564Z,73.50
2018-05-31T06:32:31.292Z,73.60
2018-05-31T06:34:58.992Z,73.60
2018-05-31T06:37:26.680Z,73.50
2018-05-31T06:39:55.172Z,73.50
2018-05-31T06:42:23.643Z,73.40
2018-05-31T06:44:51.613Z,73.40
2018-05-31T06:47:19.342Z,73.40
2018-05-31T06:49:47.161Z,73.40
2018-05-31T06:52:15.617Z,73.40
2018-05-31T06:54:43.372Z,73.40
2018-05-31T06:57:11.053Z,73.40
2018-05-31T06:59:38.741Z,73.40
2018-05-31T07:02:06.467Z,72.80
2018-05-31T07:04:34.180Z,73.30
2018-05-31T07:07:01.853Z,73.30
2018-05-31T07:09:29.530Z,73.30
2018-05-31T07:11:57.247Z,73.30
2018-05-31T07:14:25.674Z,73.30
2018-05-31T07:16:53.384Z,73.30
2018-05-31T07:19:21.846Z,73.40
2018-05-31T07:21:49.576Z,73.30
2018-05-31T07:24:17.275Z,73.30
2018-05-31T07:26:45.017Z,73.20
2018-05-31T07:29:12.685Z,73.30
2018-05-31T07:31:40.417Z,73.30
2018-05-31T07:34:08.119Z,73.20
2018-05-31T07:36:35.867Z,73.10
2018-05-31T07:39:03.705Z,73.20
2018-05-31T07:41:31.419Z,73.10
2018-05-31T07:43:59.114Z,73.10
2018-05-31T07:46:26.834Z,73.10
2018-05-31T07:48:55.005Z,73.00
2018-05-31T07:51:22.806Z,73.10
2018-05-31T07:53:50.533Z,73.00
2018-05-31T07:56:18.252Z,73.00
2018-05-31T07:58:45.989Z,73.00
2018-05-31T08:01:14.436Z,73.00
2018-05-31T08:03:42.105Z,72.90
2018-05-31T08:06:09.828Z,73.00
2018-05-31T08:08:37.552Z,73.00
2018-05-31T08:11:05.216Z,73.00
2018-05-31T08:13:33.667Z,72.90
2018-05-31T08:16:01.349Z,72.80
2018-05-31T08:18:29.065Z,72.80
2018-05-31T08:20:57.261Z,72.80
2018-05-31T08:23:24.957Z,72.80
2018-05-31T08:25:53.434Z,72.80
2018-05-31T08:28:21.913Z,72.70
2018-05-31T08:30:49.657Z,72.70
2018-05-31T08:33:17.353Z,72.70
2018-05-31T08:35:45.797Z,72.70
2018-05-31T08:38:13.460Z,72.70
2018-05-31T08:40:41.143Z,72.60
2018-05-31T08:43:08.840Z,72.70
2018-05-31T08:45:36.684Z,72.60
2018-05-31T08:48:04.424Z,72.60
2018-05-31T08:50:32.085Z,72.50
2018-05-31T08:53:00.151Z,72.50
2018-05-31T08:55:27.864Z,72.50
2018-05-31T08:57:56.331Z,72.50
2018-05-31T09:00:24.808Z,72.50
2018-05-31T09:02:53.272Z,72.50
2018-05-31T09:05:20.962Z,72.40
2018-05-31T09:07:49.418Z,72.50
2018-05-31T09:10:17.124Z,72.40
2018-05-31T09:12:44.850Z,72.50
2018-05-31T09:15:12.608Z,72.40
2018-05-31T09:17:41.110Z,72.50
2018-05-31T09:20:09.592Z,72.50
2018-05-31T09:22:38.037Z,72.40
2018-05-31T09:25:06.069Z,72.40
2018-05-31T09:27:33.807Z,72.40
2018-05-31T09:30:02.249Z,72.50
2018-05-31T09:32:29.911Z,72.40
2018-05-31T09:34:57.659Z,72.40
2018-05-31T09:37:25.354Z,72.40
2018-05-31T09:39:53.054Z,72.40
2018-05-31T09:42:20.783Z,72.40
2018-05-31T09:44:48.493Z,72.40
2018-05-31T09:47:16.198Z,72.40
2018-05-31T09:49:43.874Z,72.30
2018-05-31T09:52:11.632Z,72.40
2018-05-31T09:54:39.370Z,72.30
2018-05-31T09:57:07.043Z,72.30
2018-05-31T09:59:34.800Z,72.30
2018-05-31T10:02:02.542Z,72.30
2018-05-31T10:04:30.229Z,72.30
2018-05-31T10:06:57.939Z,72.20
2018-05-31T10:09:26.396Z,72.20
2018-05-31T10:11:54.065Z,72.20
2018-05-31T10:14:21.724Z,72.20
2018-05-31T10:16:49.405Z,72.40
2018-05-31T10:19:17.845Z,72.20
2018-05-31T10:21:46.327Z,72.10
2018-05-31T10:24:14.038Z,72.10
2018-05-31T10:26:41.689Z,72.10
2018-05-31T10:29:10.182Z,72.20
2018-05-31T10:31:38.644Z,72.10
2018-05-31T10:34:07.134Z,72.10
2018-05-31T10:36:35.569Z,72.10
2018-05-31T10:39:03.448Z,72.00
2018-05-31T10:41:31.154Z,72.00
2018-05-31T10:43:58.879Z,72.00
2018-05-31T10:46:26.624Z,72.00
2018-05-31T10:48:54.313Z,71.90
2018-05-31T10:51:22.075Z,71.90
2018-05-31T10:53:49.844Z,72.00
2018-05-31T10:56:17.509Z,72.00
2018-05-31T10:58:45.216Z,71.30
2018-05-31T11:01:13.291Z,71.90
2018-05-31T11:03:40.984Z,71.90
2018-05-31T11:06:08.641Z,71.90
2018-05-31T11:08:36.355Z,71.80
2018-05-31T11:11:04.114Z,71.80
2018-05-31T11:13:32.589Z,71.80
2018-05-31T11:16:01.051Z,71.70
2018-05-31T11:18:28.714Z,71.70
2018-05-31T11:20:56.424Z,71.70
2018-05-31T11:23:24.132Z,71.80
2018-05-31T11:25:51.821Z,72.50
2018-05-31T11:28:20.275Z,71.80
2018-05-31T11:30:47.957Z,71.80
2018-05-31T11:33:16.715Z,71.70
2018-05-31T11:35:44.401Z,71.70
2018-05-31T11:38:12.894Z,71.70
2018-05-31T11:40:41.345Z,71.60
2018-05-31T11:43:09.086Z,71.60
2018-05-31T11:45:36.795Z,71.70
2018-05-31T11:48:05.253Z,71.70
2018-05-31T11:50:33.025Z,71.60
2018-05-31T11:53:00.703Z,71.70
2018-05-31T11:55:29.212Z,71.90
2018-05-31T11:57:56.947Z,71.60
2018-05-31T12:00:25.476Z,71.70
2018-05-31T12:02:53.236Z,71.70
2018-05-31T12:05:21.225Z,71.60
2018-05-31T12:07:48.933Z,71.70
2018-05-31T12:10:17.409Z,71.70
2018-05-31T12:12:45.135Z,71.60
2018-05-31T12:15:12.897Z,71.60
2018-05-31T12:17:40.640Z,71.60
2018-05-31T12:20:08.349Z,71.60
2018-05-31T12:22:36.067Z,71.60
2018-05-31T12:25:03.801Z,71.60
2018-05-31T12:27:32.269Z,71.70
2018-05-31T12:30:00.061Z,71.70
2018-05-31T12:32:27.760Z,71.70
2018-05-31T12:34:55.435Z,71.70
2018-05-31T12:37:23.570Z,71.70
2018-05-31T12:39:51.264Z,71.60
2018-05-31T12:42:18.953Z,71.70
2018-05-31T12:44:46.632Z,71.70
2018-05-31T12:47:15.167Z,71.70
2018-05-31T12:49:42.871Z,71.70
2018-05-31T12:52:11.329Z,71.70
2018-05-31T12:54:39.070Z,71.60
2018-05-31T12:57:06.752Z,71.70
2018-05-31T12:59:34.531Z,71.70
2018-05-31T13:02:02.314Z,71.70
2018-05-31T13:04:30.773Z,71.60
2018-05-31T13:06:58.487Z,71.60
2018-05-31T13:09:26.173Z,71.60
2018-05-31T13:11:53.915Z,71.60
2018-05-31T13:14:21.627Z,71.50
2018-05-31T13:16:49.399Z,71.50
2018-05-31T13:19:17.894Z,71.60
2018-05-31T13:21:46.453Z,71.50
2018-05-31T13:24:14.249Z,71.50
2018-05-31T13:26:42.685Z,71.40
2018-05-31T13:29:10.353Z,71.40
2018-05-31T13:31:38.034Z,71.40
2018-05-31T13:34:05.820Z,71.40
2018-05-31T13:36:33.776Z,71.40
2018-05-31T13:39:02.253Z,71.50
2018-05-31T13:41:30.754Z,71.40
2018-05-31T13:43:58.934Z,71.40
2018-05-31T13:46:26.652Z,71.40
2018-05-31T13:48:54.347Z,72.10
2018-05-31T13:51:22.572Z,71.40
2018-05-31T13:53:50.251Z,71.50
2018-05-31T13:56:17.941Z,71.40
2018-05-31T13:58:46.377Z,71.50
2018-05-31T14:01:14.188Z,71.40
2018-05-31T14:03:42.679Z,71.40
2018-05-31T14:06:10.413Z,71.40
2018-05-31T14:08:38.125Z,71.50
2018-05-31T14:11:05.840Z,71.40
2018-05-31T14:13:33.666Z,71.50
2018-05-31T14:16:01.403Z,71.50
2018-05-31T14:18:29.106Z,71.50
2018-05-31T14:20:56.776Z,71.50
2018-05-31T14:23:24.743Z,71.60
2018-05-31T14:25:52.444Z,71.50
2018-05-31T14:28:20.907Z,71.60
2018-05-31T14:30:48.590Z,71.60
2018-05-31T14:33:17.084Z,71.60
2018-05-31T14:35:44.792Z,71.50
2018-05-31T14:38:12.459Z,71.60
2018-05-31T14:40:40.169Z,71.60
2018-05-31T14:43:07.916Z,71.60
2018-05-31T14:45:35.989Z,71.60
2018-05-31T14:48:04.456Z,71.60
2018-05-31T14:50:32.230Z,71.60
2018-05-31T14:53:00.685Z,71.60
2018-05-31T14:55:28.412Z,71.60
2018-05-31T14:57:56.107Z,71.60
2018-05-31T15:00:23.774Z,71.60
2018-05-31T15:02:51.469Z,71.60
2018-05-31T15:05:19.913Z,71.60
2018-05-31T15:07:47.645Z,71.60
2018-05-31T15:10:15.417Z,71.60
2018-05-31T15:12:43.129Z,71.60
2018-05-31T15:15:10.789Z,71.60
2018-05-31T15:17:38.842Z,71.90
2018-05-31T15:20:06.620Z,71.70
2018-05-31T15:22:34.401Z,71.80
2018-05-31T15:25:02.882Z,71.90
2018-05-31T15:27:31.437Z,71.90
2018-05-31T15:29:59.146Z,71.80
2018-05-31T15:32:27.629Z,72.10
2018-05-31T15:34:55.301Z,71.90
2018-05-31T15:37:22.998Z,72.10
2018-05-31T15:39:50.695Z,72.10
2018-05-31T15:42:19.161Z,72.30
2018-05-31T15:44:46.876Z,72.30
2018-05-31T15:47:14.588Z,72.30
2018-05-31T15:49:42.320Z,72.30
2018-05-31T15:52:10.021Z,72.20
2018-05-31T15:54:38.467Z,72.40
2018-05-31T15:57:06.237Z,72.30
2018-05-31T15:59:33.941Z,72.30
2018-05-31T16:02:02.446Z,72.40
2018-05-31T16:04:30.152Z,72.30
2018-05-31T16:06:57.869Z,72.40
2018-05-31T16:09:25.583Z,72.30
2018-05-31T16:11:53.269Z,72.30
2018-05-31T16:14:21.747Z,72.30
2018-05-31T16:16:50.241Z,72.20
2018-05-31T16:19:18.677Z,72.30
2018-05-31T16:21:46.436Z,72.20
2018-05-31T16:24:14.121Z,72.20
2018-05-31T16:26:41.848Z,72.30
2018-05-31T16:29:09.564Z,72.30
2018-05-31T16:31:38.089Z,72.20
2018-05-31T16:34:05.770Z,72.10
2018-05-31T16:36:33.464Z,72.20
2018-05-31T16:39:01.134Z,72.20
2018-05-31T16:41:29.653Z,72.20
2018-05-31T16:43:57.377Z,72.20
2018-05-31T16:46:25.113Z,72.20
2018-05-31T16:48:52.828Z,72.20
2018-05-31T16:51:20.580Z,72.30
2018-05-31T16:53:49.539Z,72.40
2018-05-31T16:56:17.241Z,72.40
2018-05-31T16:58:45.677Z,72.40
2018-05-31T17:01:13.376Z,72.30
2018-05-31T17:03:41.886Z,72.40
2018-05-31T17:06:09.600Z,72.30
2018-05-31T17:08:37.338Z,72.30
2018-05-31T17:11:05.078Z,72.60
2018-05-31T17:13:32.819Z,73.10
2018-05-31T17:16:01.343Z,72.70
2018-05-31T17:18:29.036Z,72.70
2018-05-31T17:20:56.775Z,72.90
2018-05-31T17:23:24.465Z,73.00
2018-05-31T17:25:52.421Z,73.10
2018-05-31T17:28:20.149Z,73.40
2018-05-31T17:30:47.948Z,73.60
2018-05-31T17:33:15.629Z,73.30
2018-05-31T17:35:43.320Z,73.00
2018-05-31T17:38:11.032Z,73.00
2018-05-31T17:40:38.710Z,73.00
2018-05-31T17:43:06.393Z,72.90
2018-05-31T17:45:34.853Z,73.30
2018-05-31T17:48:02.549Z,73.30
2018-05-31T17:50:31.006Z,74.40
2018-05-31T17:52:59.510Z,73.40
2018-05-31T17:55:27.251Z,73.40
2018-05-31T17:57:55.117Z,73.50
2018-05-31T18:00:23.593Z,73.80
2018-05-31T18:02:51.280Z,73.70
2018-05-31T18:05:19.744Z,73.50
2018-05-31T18:07:48.421Z,73.00
2018-05-31T18:10:16.187Z,72.80
2018-05-31T18:12:43.892Z,73.00
2018-05-31T18:15:11.605Z,73.70
2018-05-31T18:17:39.310Z,72.90
2018-05-31T18:20:07.135Z,72.90
2018-05-31T18:22:35.638Z,72.80
2018-05-31T18:25:04.192Z,72.60
2018-05-31T18:27:31.958Z,72.60
2018-05-31T18:29:59.937Z,72.50
2018-05-31T18:32:27.617Z,72.50
2018-05-31T18:34:56.060Z,73.10
2018-05-31T18:37:23.745Z,72.30
2018-05-31T18:39:51.538Z,73.00
2018-05-31T18:42:20.001Z,72.10
2018-05-31T18:44:47.758Z,72.10
2018-05-31T18:47:15.496Z,72.10
2018-05-31T18:49:43.195Z,72.00
2018-05-31T18:52:11.647Z,72.10
2018-05-31T18:54:39.330Z,72.10
2018-05-31T18:57:07.775Z,72.50
2018-05-31T18:59:35.466Z,72.30
2018-05-31T19:02:03.204Z,72.20
2018-05-31T19:04:30.878Z,72.30
2018-05-31T19:06:58.617Z,72.10
2018-05-31T19:09:31.935Z,72.00
2018-05-31T19:11:59.765Z,72.00
2018-05-31T19:14:27.495Z,72.10
2018-05-31T19:16:55.969Z,72.10
2018-05-31T19:19:29.952Z,72.10
2018-05-31T19:21:57.675Z,72.00
2018-05-31T19:24:45.013Z,71.90
2018-05-31T19:27:12.730Z,71.90
2018-05-31T19:29:41.183Z,72.00
2018-05-31T19:32:08.902Z,71.90
2018-05-31T19:34:36.635Z,72.00
2018-05-31T19:37:09.924Z,72.00
2018-05-31T19:39:37.594Z,72.70
2018-05-31T19:42:06.241Z,72.10
2018-05-31T19:44:37.909Z,72.00
2018-05-31T19:47:05.613Z,72.00
2018-05-31T19:49:33.285Z,72.00
2018-05-31T19:52:06.753Z,72.00
2018-05-31T19:54:34.420Z,72.30
2018-05-31T19:57:02.862Z,72.20
2018-05-31T19:59:36.273Z,72.10
2018-05-31T20:02:09.651Z,72.30
2018-05-31T20:04:37.328Z,72.20
2018-05-31T20:07:05.034Z,72.20
2018-05-31T20:09:33.461Z,72.10
2018-05-31T20:12:01.134Z,72.10
2018-05-31T20:14:28.872Z,72.10
2018-05-31T20:16:56.529Z,72.10
2018-05-31T20:19:24.221Z,72.20
2018-05-31T20:21:51.898Z,72.20
2018-05-31T20:24:19.570Z,72.10
2018-05-31T20:26:48.020Z,72.20
2018-05-31T20:29:15.681Z,72.10
2018-05-31T20:31:43.348Z,72.10
2018-05-31T20:34:11.180Z,72.20
2018-05-31T20:36:38.840Z,72.20
2018-05-31T20:39:06.514Z,72.20
2018-05-31T20:41:34.204Z,72.10
2018-05-31T20:44:01.940Z,72.10
2018-05-31T20:46:29.622Z,72.10
2018-05-31T20:48:57.293Z,72.20
2018-05-31T20:51:24.957Z,72.00
2018-05-31T20:53:52.613Z,72.10
2018-05-31T20:56:20.387Z,72.00
2018-05-31T20:58:48.057Z,72.00
2018-05-31T21:01:15.727Z,71.90
2018-05-31T21:03:44.174Z,71.90
2018-05-31T21:06:12.221Z,71.90
2018-05-31T21:08:39.880Z,71.90
2018-05-31T21:11:07.605Z,71.90
2018-05-31T21:13:35.269Z,71.80
2018-05-31T21:16:02.952Z,71.80
2018-05-31T21:18:30.629Z,71.80
2018-05-31T21:20:58.325Z,71.70
2018-05-31T21:23:25.989Z,71.60
2018-05-31T21:25:53.656Z,71.60
2018-05-31T21:28:21.317Z,71.60
2018-05-31T21:30:48.973Z,71.60
2018-05-31T21:33:16.639Z,71.60
2018-05-31T21:35:44.421Z,71.50
2018-05-31T21:38:12.338Z,71.50
2018-05-31T21:40:40.021Z,71.60
2018-05-31T21:43:07.690Z,71.50
2018-05-31T21:45:35.349Z,71.50
2018-05-31T21:48:03.017Z,71.50
2018-05-31T21:50:30.714Z,71.40
2018-05-31T21:52:59.137Z,71.30
2018-05-31T21:55:26.790Z,71.30
2018-05-31T21:57:54.451Z,71.30
2018-05-31T22:00:30.923Z,71.30
2018-05-31T22:02:58.582Z,71.20
2018-05-31T22:05:26.248Z,71.20
2018-05-31T22:07:53.904Z,71.30
2018-05-31T22:10:22.064Z,71.20
2018-05-31T22:12:50.480Z,71.20
2018-05-31T22:15:18.153Z,71.20
2018-05-31T22:17:45.809Z,71.10
2018-05-31T22:20:13.471Z,71.20
2018-05-31T22:22:41.136Z,71.10
2018-05-31T22:25:08.801Z,71.10
2018-05-31T22:27:36.465Z,71.10
2018-05-31T22:30:04.222Z,71.80
2018-05-31T22:32:31.888Z,71.00
2018-05-31T22:34:59.545Z,71.00
2018-05-31T22:37:27.207Z,71.00
2018-05-31T22:39:54.869Z,71.00
2018-05-31T22:42:22.814Z,70.90
2018-05-31T22:44:50.476Z,70.90
2018-05-31T22:47:18.142Z,71.00
2018-05-31T22:49:45.797Z,70.90
2018-05-31T22:52:13.485Z,70.90
2018-05-31T22:54:41.252Z,70.90
2018-05-31T22:57:08.912Z,70.80
2018-05-31T22:59:36.575Z,70.80
2018-05-31T23:02:04.301Z,70.80
2018-05-31T23:04:31.950Z,70.90
2018-05-31T23:07:00.378Z,70.90
2018-05-31T23:09:28.044Z,70.70
2018-05-31T23:11:55.713Z,70.80
2018-05-31T23:14:23.617Z,70.80
2018-05-31T23:16:52.052Z,70.70
2018-05-31T23:19:20.467Z,70.70
2018-05-31T23:21:48.205Z,70.70
2018-05-31T23:24:15.869Z,70.60
2018-05-31T23:26:43.544Z,70.60
2018-05-31T23:29:11.214Z,70.60
2018-05-31T23:31:38.874Z,70.60
2018-05-31T23:34:06.590Z,71.40
2018-05-31T23:36:34.241Z,70.60
2018-05-31T23:39:01.909Z,70.60
2018-05-31T23:41:29.597Z,70.50
2018-05-31T23:43:57.257Z,70.50
2018-05-31T23:46:25.037Z,70.50
2018-05-31T23:48:52.684Z,70.50
2018-05-31T23:51:20.348Z,70.50
2018-05-31T23:53:48.011Z,70.50
2018-05-31T23:56:15.669Z,70.40
2018-05-31T23:58:43.357Z,70.40
